CheckWX is a tool to help pilots better visualize weather data.  It is not intended as a substitute for an official pre-flight weather briefing.

12:27:23 UTC

ZUCK TAF
Chongqing Jiangbei International Airport
Chongqing, China
TAF ZUCK 220905Z 2212/2312 31003MPS 5000 BR SCT012 OVC040 TX11/2308Z TN09/2222Z BECMG 2215/2216 3100 -RA BR FEW005 SCT010 OVC030

Mar-22@
12:00 UTC

Mar-22 @ 12:00 UTC

Mar-22@
15:00 UTC

Mar-22 @ 15:00 UTC

TAF ZUCK 220905Z 2212/2312 31003MPS 5000 BR SCT012 OVC040 TX11/2308Z TN09/2222Z
Wind
  • 310° at 6 KTS
Conditions
Mist
Cloud Levels
  • Scattered at 1,200' AGL
  • Overcast at 4,000' AGL

Mar-22@
15:00 UTC

Mar-22 @ 15:00 UTC

Mar-23@
12:00 UTC

Mar-23 @ 12:00 UTC

BECMG 2215/2216 3100 -RA BR FEW005 SCT010 OVC030

Becoming

Becoming Conditions expected by Fri, Mar 22, 2019 @ 16:00 UTC

Wind
  • 310° at 6 KTS
Conditions
Light Rain, Mist
Cloud Levels
  • Few at 500' AGL
  • Scattered at 1,000' AGL
  • Overcast at 3,000' AGL